sensor_id;sensor_type;location;lat;lon;timestamp;temperature;humidity
17033;DHT22;63208;52.178;21.016;2023-04-01T00:00:30;10.40;99.90
17033;DHT22;63208;52.178;21.016;2023-04-01T00:02:57;10.30;99.90
17033;DHT22;63208;52.178;21.016;2023-04-01T00:05:23;10.40;99.90
17033;DHT22;63208;52.178;21.016;2023-04-01T00:07:50;10.40;99.90
17033;DHT22;63208;52.178;21.016;2023-04-01T00:10:17;10.30;99.90
17033;DHT22;63208;52.178;21.016;2023-04-01T00:12:44;10.30;99.90
17033;DHT22;63208;52.178;21.016;2023-04-01T00:15:11;10.20;99.90
17033;DHT22;63208;52.178;21.016;2023-04-01T00:17:39;10.20;99.90
17033;DHT22;63208;52.178;21.016;2023-04-01T00:20:06;10.20;99.90
17033;DHT22;63208;52.178;21.016;2023-04-01T00:22:34;10.10;99.90
17033;DHT22;63208;52.178;21.016;2023-04-01T00:25:01;10.10;99.90
17033;DHT22;63208;52.178;21.016;2023-04-01T00:27:28;10.10;99.90
17033;DHT22;63208;52.178;21.016;2023-04-01T00:29:55;10.10;99.90
17033;DHT22;63208;52.178;21.016;2023-04-01T00:32:21;10.10;99.90
17033;DHT22;63208;52.178;21.016;2023-04-01T00:34:51;10.10;99.90
17033;DHT22;63208;52.178;21.016;2023-04-01T00:37:18;10.10;99.90
17033;DHT22;63208;52.178;21.016;2023-04-01T00:39:45;10.10;99.90
17033;DHT22;63208;52.178;21.016;2023-04-01T00:42:12;10.00;99.90
17033;DHT22;63208;52.178;21.016;2023-04-01T00:44:39;10.00;99.90
17033;DHT22;63208;52.178;21.016;2023-04-01T00:47:06;10.10;99.90
17033;DHT22;63208;52.178;21.016;2023-04-01T00:49:33;10.10;99.90
17033;DHT22;63208;52.178;21.016;2023-04-01T00:52:03;10.10;99.90
17033;DHT22;63208;52.178;21.016;2023-04-01T00:54:31;10.10;99.90
17033;DHT22;63208;52.178;21.016;2023-04-01T00:56:59;10.10;99.90
17033;DHT22;63208;52.178;21.016;2023-04-01T00:59:27;10.10;99.90
17033;DHT22;63208;52.178;21.016;2023-04-01T01:01:55;10.20;99.90
17033;DHT22;63208;52.178;21.016;2023-04-01T01:04:23;10.10;99.90
17033;DHT22;63208;52.178;21.016;2023-04-01T01:06:51;10.20;99.90
17033;DHT22;63208;52.178;21.016;2023-04-01T01:09:25;10.10;99.90
17033;DHT22;63208;52.178;21.016;2023-04-01T01:11:56;10.20;99.90
17033;DHT22;63208;52.178;21.016;2023-04-01T01:14:31;10.20;99.90
17033;DHT22;63208;52.178;21.016;2023-04-01T01:17:02;10.20;99.90
17033;DHT22;63208;52.178;21.016;2023-04-01T01:19:39;10.20;99.90
17033;DHT22;63208;52.178;21.016;2023-04-01T01:22:18;10.10;99.90
17033;DHT22;63208;52.178;21.016;2023-04-01T01:24:53;10.10;99.90
17033;DHT22;63208;52.178;21.016;2023-04-01T01:27:22;10.10;99.90
17033;DHT22;63208;52.178;21.016;2023-04-01T01:32:37;10.00;99.90
17033;DHT22;63208;52.178;21.016;2023-04-01T01:35:12;10.00;99.90
17033;DHT22;63208;52.178;21.016;2023-04-01T01:37:41;10.00;99.90
17033;DHT22;63208;52.178;21.016;2023-04-01T01:40:10;10.00;99.90
17033;DHT22;63208;52.178;21.016;2023-04-01T01:42:38;10.00;99.90
17033;DHT22;63208;52.178;21.016;2023-04-01T01:45:06;10.00;99.90
17033;DHT22;63208;52.178;21.016;2023-04-01T01:47:35;9.90;99.90
17033;DHT22;63208;52.178;21.016;2023-04-01T01:50:02;9.80;99.90
17033;DHT22;63208;52.178;21.016;2023-04-01T01:52:31;9.80;99.90
17033;DHT22;63208;52.178;21.016;2023-04-01T01:54:58;9.90;99.90
17033;DHT22;63208;52.178;21.016;2023-04-01T01:57:26;9.80;99.90
17033;DHT22;63208;52.178;21.016;2023-04-01T01:59:54;9.80;99.90
17033;DHT22;63208;52.178;21.016;2023-04-01T02:02:21;9.80;99.90
17033;DHT22;63208;52.178;21.016;2023-04-01T02:04:49;9.80;99.90
17033;DHT22;63208;52.178;21.016;2023-04-01T02:07:18;9.80;99.90
17033;DHT22;63208;52.178;21.016;2023-04-01T02:09:50;9.90;99.90
17033;DHT22;63208;52.178;21.016;2023-04-01T02:12:17;9.90;99.90
17033;DHT22;63208;52.178;21.016;2023-04-01T02:14:45;9.90;99.90
17033;DHT22;63208;52.178;21.016;2023-04-01T02:17:14;9.90;99.90
17033;DHT22;63208;52.178;21.016;2023-04-01T02:19:43;9.90;99.90
17033;DHT22;63208;52.178;21.016;2023-04-01T02:22:13;9.90;99.90
17033;DHT22;63208;52.178;21.016;2023-04-01T02:24:40;9.80;99.90
17033;DHT22;63208;52.178;21.016;2023-04-01T02:27:10;9.70;99.90
17033;DHT22;63208;52.178;21.016;2023-04-01T02:29:37;9.70;99.90
17033;DHT22;63208;52.178;21.016;2023-04-01T02:32:04;9.70;99.90
17033;DHT22;63208;52.178;21.016;2023-04-01T02:34:32;9.70;99.90
17033;DHT22;63208;52.178;21.016;2023-04-01T02:36:59;9.70;99.90
17033;DHT22;63208;52.178;21.016;2023-04-01T02:39:26;9.80;99.90
17033;DHT22;63208;52.178;21.016;2023-04-01T02:41:52;9.60;99.90
17033;DHT22;63208;52.178;21.016;2023-04-01T02:44:21;9.60;99.90
17033;DHT22;63208;52.178;21.016;2023-04-01T02:46:47;9.60;99.90
17033;DHT22;63208;52.178;21.016;2023-04-01T02:49:14;9.60;99.90
17033;DHT22;63208;52.178;21.016;2023-04-01T02:51:41;9.60;99.90
17033;DHT22;63208;52.178;21.016;2023-04-01T02:54:07;9.50;99.90
17033;DHT22;63208;52.178;21.016;2023-04-01T02:56:37;9.60;99.90
17033;DHT22;63208;52.178;21.016;2023-04-01T02:59:06;9.60;99.90
17033;DHT22;63208;52.178;21.016;2023-04-01T03:01:35;9.60;99.90
17033;DHT22;63208;52.178;21.016;2023-04-01T03:04:01;9.60;99.90
17033;DHT22;63208;52.178;21.016;2023-04-01T03:06:28;9.60;99.90
17033;DHT22;63208;52.178;21.016;2023-04-01T03:08:55;9.60;99.90
17033;DHT22;63208;52.178;21.016;2023-04-01T03:11:22;9.50;99.90
17033;DHT22;63208;52.178;21.016;2023-04-01T03:13:48;9.50;99.90
17033;DHT22;63208;52.178;21.016;2023-04-01T03:16:15;9.50;99.90
17033;DHT22;63208;52.178;21.016;2023-04-01T03:18:43;9.50;99.90
17033;DHT22;63208;52.178;21.016;2023-04-01T03:21:14;9.50;99.90
17033;DHT22;63208;52.178;21.016;2023-04-01T03:23:41;9.50;99.90
17033;DHT22;63208;52.178;21.016;2023-04-01T03:26:11;7.70;99.90
17033;DHT22;63208;52.178;21.016;2023-04-01T03:28:38;9.50;99.90
17033;DHT22;63208;52.178;21.016;2023-04-01T03:31:05;9.50;99.90
17033;DHT22;63208;52.178;21.016;2023-04-01T03:33:32;9.50;99.90
17033;DHT22;63208;52.178;21.016;2023-04-01T03:36:00;9.50;99.90
17033;DHT22;63208;52.178;21.016;2023-04-01T03:38:28;9.50;99.90
17033;DHT22;63208;52.178;21.016;2023-04-01T03:40:55;9.40;99.90
17033;DHT22;63208;52.178;21.016;2023-04-01T03:43:22;9.40;99.90
17033;DHT22;63208;52.178;21.016;2023-04-01T03:45:49;9.40;99.90
17033;DHT22;63208;52.178;21.016;2023-04-01T03:48:17;9.40;99.90
17033;DHT22;63208;52.178;21.016;2023-04-01T03:50:43;9.40;99.90
17033;DHT22;63208;52.178;21.016;2023-04-01T03:53:12;9.40;99.90
17033;DHT22;63208;52.178;21.016;2023-04-01T03:55:39;9.40;99.90
17033;DHT22;63208;52.178;21.016;2023-04-01T03:58:06;9.40;99.90
17033;DHT22;63208;52.178;21.016;2023-04-01T04:00:33;9.40;99.90
17033;DHT22;63208;52.178;21.016;2023-04-01T04:03:00;9.50;99.90
17033;DHT22;63208;52.178;21.016;2023-04-01T04:05:27;9.50;99.90
17033;DHT22;63208;52.178;21.016;2023-04-01T04:07:56;9.50;99.90
17033;DHT22;63208;52.178;21.016;2023-04-01T04:10:24;9.50;99.90
17033;DHT22;63208;52.178;21.016;2023-04-01T04:12:51;9.50;99.90
17033;DHT22;63208;52.178;21.016;2023-04-01T04:15:18;9.50;99.90
17033;DHT22;63208;52.178;21.016;2023-04-01T04:17:45;9.50;99.90
17033;DHT22;63208;52.178;21.016;2023-04-01T04:20:12;9.50;99.90
17033;DHT22;63208;52.178;21.016;2023-04-01T04:22:39;9.50;99.90
17033;DHT22;63208;52.178;21.016;2023-04-01T04:25:06;9.60;99.90
17033;DHT22;63208;52.178;21.016;2023-04-01T04:27:34;9.50;99.90
17033;DHT22;63208;52.178;21.016;2023-04-01T04:30:01;9.50;99.90
17033;DHT22;63208;52.178;21.016;2023-04-01T04:32:28;9.50;99.90
17033;DHT22;63208;52.178;21.016;2023-04-01T04:34:56;9.50;99.90
17033;DHT22;63208;52.178;21.016;2023-04-01T04:37:22;9.50;99.90
17033;DHT22;63208;52.178;21.016;2023-04-01T04:39:51;9.50;99.90
17033;DHT22;63208;52.178;21.016;2023-04-01T04:42:17;9.50;99.90
17033;DHT22;63208;52.178;21.016;2023-04-01T04:44:46;9.50;99.90
17033;DHT22;63208;52.178;21.016;2023-04-01T04:47:12;9.50;99.90
17033;DHT22;63208;52.178;21.016;2023-04-01T04:49:39;9.50;99.90
17033;DHT22;63208;52.178;21.016;2023-04-01T04:52:06;9.50;99.90
17033;DHT22;63208;52.178;21.016;2023-04-01T04:54:32;9.50;99.90
17033;DHT22;63208;52.178;21.016;2023-04-01T04:56:59;9.50;99.90
17033;DHT22;63208;52.178;21.016;2023-04-01T04:59:26;9.50;99.90
17033;DHT22;63208;52.178;21.016;2023-04-01T05:01:54;9.50;99.90
17033;DHT22;63208;52.178;21.016;2023-04-01T05:04:21;9.50;99.90
17033;DHT22;63208;52.178;21.016;2023-04-01T05:06:47;9.50;99.90
17033;DHT22;63208;52.178;21.016;2023-04-01T05:09:14;9.40;99.90
17033;DHT22;63208;52.178;21.016;2023-04-01T05:11:41;9.40;99.90
17033;DHT22;63208;52.178;21.016;2023-04-01T05:14:11;9.40;99.90
17033;DHT22;63208;52.178;21.016;2023-04-01T05:16:38;9.40;99.90
17033;DHT22;63208;52.178;21.016;2023-04-01T05:19:06;9.40;99.90
17033;DHT22;63208;52.178;21.016;2023-04-01T05:21:33;9.40;99.90
17033;DHT22;63208;52.178;21.016;2023-04-01T05:23:59;9.40;99.90
17033;DHT22;63208;52.178;21.016;2023-04-01T05:26:26;9.50;99.90
17033;DHT22;63208;52.178;21.016;2023-04-01T05:28:53;9.50;99.90
17033;DHT22;63208;52.178;21.016;2023-04-01T05:31:20;9.40;99.90
17033;DHT22;63208;52.178;21.016;2023-04-01T05:33:46;9.50;99.90
17033;DHT22;63208;52.178;21.016;2023-04-01T05:36:15;9.40;99.90
17033;DHT22;63208;52.178;21.016;2023-04-01T05:38:42;9.50;99.90
17033;DHT22;63208;52.178;21.016;2023-04-01T05:41:11;9.60;99.90
17033;DHT22;63208;52.178;21.016;2023-04-01T05:43:38;9.60;99.90
17033;DHT22;63208;52.178;21.016;2023-04-01T05:46:06;9.60;99.90
17033;DHT22;63208;52.178;21.016;2023-04-01T05:48:33;9.60;99.90
17033;DHT22;63208;52.178;21.016;2023-04-01T05:51:00;9.60;99.90
17033;DHT22;63208;52.178;21.016;2023-04-01T05:53:28;9.60;99.90
17033;DHT22;63208;52.178;21.016;2023-04-01T05:55:55;9.60;99.90
17033;DHT22;63208;52.178;21.016;2023-04-01T05:58:21;9.60;99.90
17033;DHT22;63208;52.178;21.016;2023-04-01T06:00:48;9.60;99.90
17033;DHT22;63208;52.178;21.016;2023-04-01T06:03:15;9.70;99.90
17033;DHT22;63208;52.178;21.016;2023-04-01T06:05:42;9.70;99.90
17033;DHT22;63208;52.178;21.016;2023-04-01T06:08:10;9.70;99.90
17033;DHT22;63208;52.178;21.016;2023-04-01T06:10:42;9.70;99.90
17033;DHT22;63208;52.178;21.016;2023-04-01T06:13:10;9.80;99.90
17033;DHT22;63208;52.178;21.016;2023-04-01T06:15:42;9.80;99.90
17033;DHT22;63208;52.178;21.016;2023-04-01T06:18:26;9.80;99.90
17033;DHT22;63208;52.178;21.016;2023-04-01T06:20:58;9.80;99.90
17033;DHT22;63208;52.178;21.016;2023-04-01T06:23:29;9.80;99.90
17033;DHT22;63208;52.178;21.016;2023-04-01T06:26:02;9.80;99.90
17033;DHT22;63208;52.178;21.016;2023-04-01T06:28:48;9.80;99.90
17033;DHT22;63208;52.178;21.016;2023-04-01T06:37:07;10.50;99.90
17033;DHT22;63208;52.178;21.016;2023-04-01T06:39:40;10.00;99.90
17033;DHT22;63208;52.178;21.016;2023-04-01T06:42:28;9.90;99.90
17033;DHT22;63208;52.178;21.016;2023-04-01T06:45:01;10.00;99.90
17033;DHT22;63208;52.178;21.016;2023-04-01T06:47:35;10.00;99.90
17033;DHT22;63208;52.178;21.016;2023-04-01T06:50:06;9.90;99.90
17033;DHT22;63208;52.178;21.016;2023-04-01T06:52:36;9.90;99.90
17033;DHT22;63208;52.178;21.016;2023-04-01T06:55:12;10.00;99.90
17033;DHT22;63208;52.178;21.016;2023-04-01T06:57:45;10.10;99.90
17033;DHT22;63208;52.178;21.016;2023-04-01T07:00:14;10.10;99.90
17033;DHT22;63208;52.178;21.016;2023-04-01T07:02:45;10.00;99.90
17033;DHT22;63208;52.178;21.016;2023-04-01T07:05:21;10.00;99.90
17033;DHT22;63208;52.178;21.016;2023-04-01T07:07:50;10.00;99.90
17033;DHT22;63208;52.178;21.016;2023-04-01T07:10:23;10.00;99.90
17033;DHT22;63208;52.178;21.016;2023-04-01T07:12:58;10.00;99.90
17033;DHT22;63208;52.178;21.016;2023-04-01T07:15:28;10.00;99.90
17033;DHT22;63208;52.178;21.016;2023-04-01T07:18:05;10.00;99.90
17033;DHT22;63208;52.178;21.016;2023-04-01T07:25:56;10.00;99.90
17033;DHT22;63208;52.178;21.016;2023-04-01T07:28:36;9.90;99.90
17033;DHT22;63208;52.178;21.016;2023-04-01T07:31:08;9.80;99.90
17033;DHT22;63208;52.178;21.016;2023-04-01T07:33:39;10.00;99.90
17033;DHT22;63208;52.178;21.016;2023-04-01T07:36:09;9.90;99.90
17033;DHT22;63208;52.178;21.016;2023-04-01T07:38:39;9.90;99.90
17033;DHT22;63208;52.178;21.016;2023-04-01T07:41:28;10.00;99.90
17033;DHT22;63208;52.178;21.016;2023-04-01T07:44:03;10.00;99.90
17033;DHT22;63208;52.178;21.016;2023-04-01T07:46:37;10.10;99.90
17033;DHT22;63208;52.178;21.016;2023-04-01T07:49:07;10.10;99.90
17033;DHT22;63208;52.178;21.016;2023-04-01T07:51:35;10.20;99.90
17033;DHT22;63208;52.178;21.016;2023-04-01T07:54:05;10.20;99.90
17033;DHT22;63208;52.178;21.016;2023-04-01T07:56:36;10.20;99.90
17033;DHT22;63208;52.178;21.016;2023-04-01T07:59:07;10.20;99.90
17033;DHT22;63208;52.178;21.016;2023-04-01T08:01:39;10.10;99.90
17033;DHT22;63208;52.178;21.016;2023-04-01T08:04:14;10.00;99.90
17033;DHT22;63208;52.178;21.016;2023-04-01T08:06:45;10.20;99.90
17033;DHT22;63208;52.178;21.016;2023-04-01T08:09:15;10.10;99.90
17033;DHT22;63208;52.178;21.016;2023-04-01T08:11:48;10.10;99.90
17033;DHT22;63208;52.178;21.016;2023-04-01T08:14:21;10.10;99.90
17033;DHT22;63208;52.178;21.016;2023-04-01T08:16:54;10.00;99.90
17033;DHT22;63208;52.178;21.016;2023-04-01T08:19:44;10.00;99.90
17033;DHT22;63208;52.178;21.016;2023-04-01T08:22:15;10.00;99.90
17033;DHT22;63208;52.178;21.016;2023-04-01T08:24:44;10.00;99.90
17033;DHT22;63208;52.178;21.016;2023-04-01T08:27:13;10.10;99.90
17033;DHT22;63208;52.178;21.016;2023-04-01T08:29:44;10.10;99.90
17033;DHT22;63208;52.178;21.016;2023-04-01T08:32:16;8.70;99.90
17033;DHT22;63208;52.178;21.016;2023-04-01T08:34:46;10.20;99.90
17033;DHT22;63208;52.178;21.016;2023-04-01T08:37:14;7.70;99.90
17033;DHT22;63208;52.178;21.016;2023-04-01T08:39:43;9.50;99.90
17033;DHT22;63208;52.178;21.016;2023-04-01T08:45:05;10.20;99.90
17033;DHT22;63208;52.178;21.016;2023-04-01T08:47:38;10.20;99.90
17033;DHT22;63208;52.178;21.016;2023-04-01T08:50:23;10.10;99.90
17033;DHT22;63208;52.178;21.016;2023-04-01T08:52:52;10.10;99.90
17033;DHT22;63208;52.178;21.016;2023-04-01T08:55:44;10.20;99.90
17033;DHT22;63208;52.178;21.016;2023-04-01T08:58:17;10.00;99.90
17033;DHT22;63208;52.178;21.016;2023-04-01T09:00:49;10.00;99.90
17033;DHT22;63208;52.178;21.016;2023-04-01T09:03:25;10.10;99.90
17033;DHT22;63208;52.178;21.016;2023-04-01T09:11:47;10.40;99.90
17033;DHT22;63208;52.178;21.016;2023-04-01T09:14:34;10.20;99.90
17033;DHT22;63208;52.178;21.016;2023-04-01T09:17:17;10.20;99.90
17033;DHT22;63208;52.178;21.016;2023-04-01T09:22:41;10.10;99.90
17033;DHT22;63208;52.178;21.016;2023-04-01T09:25:32;10.20;99.90
17033;DHT22;63208;52.178;21.016;2023-04-01T09:28:02;10.20;99.90
17033;DHT22;63208;52.178;21.016;2023-04-01T09:30:41;10.30;99.90
17033;DHT22;63208;52.178;21.016;2023-04-01T09:35:58;10.20;99.90
17033;DHT22;63208;52.178;21.016;2023-04-01T09:38:34;10.10;99.90
17033;DHT22;63208;52.178;21.016;2023-04-01T09:44:02;10.10;99.90
17033;DHT22;63208;52.178;21.016;2023-04-01T09:46:44;10.10;99.90
17033;DHT22;63208;52.178;21.016;2023-04-01T09:56:03;9.60;99.90
17033;DHT22;63208;52.178;21.016;2023-04-01T10:01:27;9.70;99.90
17033;DHT22;63208;52.178;21.016;2023-04-01T10:04:07;9.60;99.90
17033;DHT22;63208;52.178;21.016;2023-04-01T10:06:51;9.60;99.90
17033;DHT22;63208;52.178;21.016;2023-04-01T10:17:53;9.80;99.90
17033;DHT22;63208;52.178;21.016;2023-04-01T10:20:40;9.90;99.90
17033;DHT22;63208;52.178;21.016;2023-04-01T10:23:27;9.90;99.90
17033;DHT22;63208;52.178;21.016;2023-04-01T10:26:01;10.00;99.90
17033;DHT22;63208;52.178;21.016;2023-04-01T10:28:36;10.00;99.90
17033;DHT22;63208;52.178;21.016;2023-04-01T10:31:19;10.10;99.90
17033;DHT22;63208;52.178;21.016;2023-04-01T10:34:01;10.30;99.90
17033;DHT22;63208;52.178;21.016;2023-04-01T10:50:23;10.30;99.90
17033;DHT22;63208;52.178;21.016;2023-04-01T10:56:04;10.40;99.90
17033;DHT22;63208;52.178;21.016;2023-04-01T11:01:22;10.50;99.90
17033;DHT22;63208;52.178;21.016;2023-04-01T11:04:01;10.60;99.90
17033;DHT22;63208;52.178;21.016;2023-04-01T11:09:28;10.40;99.90
17033;DHT22;63208;52.178;21.016;2023-04-01T11:14:58;10.60;99.90
17033;DHT22;63208;52.178;21.016;2023-04-01T11:20:35;10.90;99.90
17033;DHT22;63208;52.178;21.016;2023-04-01T11:34:56;10.80;99.90
17033;DHT22;63208;52.178;21.016;2023-04-01T11:37:27;10.80;99.90
17033;DHT22;63208;52.178;21.016;2023-04-01T11:39:59;10.90;99.90
17033;DHT22;63208;52.178;21.016;2023-04-01T11:42:31;11.00;99.90
17033;DHT22;63208;52.178;21.016;2023-04-01T11:45:01;10.90;99.90
17033;DHT22;63208;52.178;21.016;2023-04-01T11:47:45;10.80;99.90
17033;DHT22;63208;52.178;21.016;2023-04-01T11:50:23;10.80;99.90
17033;DHT22;63208;52.178;21.016;2023-04-01T11:53:01;10.90;99.90
17033;DHT22;63208;52.178;21.016;2023-04-01T11:55:32;13.90;99.90
17033;DHT22;63208;52.178;21.016;2023-04-01T12:01:03;11.20;99.90
17033;DHT22;63208;52.178;21.016;2023-04-01T12:03:54;11.10;99.90
17033;DHT22;63208;52.178;21.016;2023-04-01T12:06:31;11.10;99.90
17033;DHT22;63208;52.178;21.016;2023-04-01T12:09:01;10.90;99.90
17033;DHT22;63208;52.178;21.016;2023-04-01T12:11:33;11.00;99.90
17033;DHT22;63208;52.178;21.016;2023-04-01T12:14:05;11.00;99.90
17033;DHT22;63208;52.178;21.016;2023-04-01T12:16:43;11.50;99.90
17033;DHT22;63208;52.178;21.016;2023-04-01T12:19:15;13.20;99.90
17033;DHT22;63208;52.178;21.016;2023-04-01T12:27:54;11.20;99.90
17033;DHT22;63208;52.178;21.016;2023-04-01T12:30:37;11.20;99.90
17033;DHT22;63208;52.178;21.016;2023-04-01T12:36:02;11.40;99.90
17033;DHT22;63208;52.178;21.016;2023-04-01T12:38:47;11.60;99.90
17033;DHT22;63208;52.178;21.016;2023-04-01T12:41:18;11.70;99.90
17033;DHT22;63208;52.178;21.016;2023-04-01T12:44:05;11.80;99.90
17033;DHT22;63208;52.178;21.016;2023-04-01T12:46:40;12.10;99.90
17033;DHT22;63208;52.178;21.016;2023-04-01T12:52:04;11.90;99.90
17033;DHT22;63208;52.178;21.016;2023-04-01T12:54:39;11.90;99.90
17033;DHT22;63208;52.178;21.016;2023-04-01T12:57:16;12.30;99.90
17033;DHT22;63208;52.178;21.016;2023-04-01T12:59:52;12.70;99.90
17033;DHT22;63208;52.178;21.016;2023-04-01T13:02:24;12.90;99.90
17033;DHT22;63208;52.178;21.016;2023-04-01T13:09:49;12.80;99.90
17033;DHT22;63208;52.178;21.016;2023-04-01T13:12:29;12.50;99.90
17033;DHT22;63208;52.178;21.016;2023-04-01T13:15:11;13.00;99.90
17033;DHT22;63208;52.178;21.016;2023-04-01T13:20:36;13.00;99.90
17033;DHT22;63208;52.178;21.016;2023-04-01T13:26:08;13.10;99.90
17033;DHT22;63208;52.178;21.016;2023-04-01T13:28:40;13.00;99.90
17033;DHT22;63208;52.178;21.016;2023-04-01T13:31:14;12.70;99.90
17033;DHT22;63208;52.178;21.016;2023-04-01T13:33:47;12.50;99.90
17033;DHT22;63208;52.178;21.016;2023-04-01T13:43:39;12.00;99.90
17033;DHT22;63208;52.178;21.016;2023-04-01T13:48:47;11.80;99.90
17033;DHT22;63208;52.178;21.016;2023-04-01T14:01:25;10.80;99.90
17033;DHT22;63208;52.178;21.016;2023-04-01T14:06:43;10.70;99.90
17033;DHT22;63208;52.178;21.016;2023-04-01T14:12:04;11.10;99.90
17033;DHT22;63208;52.178;21.016;2023-04-01T14:27:57;11.20;99.90
17033;DHT22;63208;52.178;21.016;2023-04-01T14:35:26;11.00;99.90
17033;DHT22;63208;52.178;21.016;2023-04-01T14:40:27;10.90;99.90
17033;DHT22;63208;52.178;21.016;2023-04-01T14:50:53;10.80;99.90
17033;DHT22;63208;52.178;21.016;2023-04-01T14:53:26;10.80;99.90
17033;DHT22;63208;52.178;21.016;2023-04-01T14:55:53;10.80;99.90
17033;DHT22;63208;52.178;21.016;2023-04-01T14:58:21;10.80;99.90
17033;DHT22;63208;52.178;21.016;2023-04-01T15:00:54;10.80;99.90
17033;DHT22;63208;52.178;21.016;2023-04-01T15:03:25;10.70;99.90
17033;DHT22;63208;52.178;21.016;2023-04-01T15:05:56;10.80;99.90
17033;DHT22;63208;52.178;21.016;2023-04-01T15:08:27;10.80;99.90
17033;DHT22;63208;52.178;21.016;2023-04-01T15:11:10;10.70;99.90
17033;DHT22;63208;52.178;21.016;2023-04-01T15:13:43;10.60;99.90
17033;DHT22;63208;52.178;21.016;2023-04-01T15:16:17;10.50;99.90
17033;DHT22;63208;52.178;21.016;2023-04-01T15:18:48;10.50;99.90
17033;DHT22;63208;52.178;21.016;2023-04-01T15:23:51;10.40;99.90
17033;DHT22;63208;52.178;21.016;2023-04-01T15:26:26;10.50;99.90
17033;DHT22;63208;52.178;21.016;2023-04-01T15:34:02;10.40;99.90
17033;DHT22;63208;52.178;21.016;2023-04-01T15:36:33;10.40;99.90
17033;DHT22;63208;52.178;21.016;2023-04-01T15:39:09;10.40;99.90
17033;DHT22;63208;52.178;21.016;2023-04-01T16:01:26;10.20;99.90
17033;DHT22;63208;52.178;21.016;2023-04-01T16:06:27;10.20;99.90
17033;DHT22;63208;52.178;21.016;2023-04-01T16:09:09;10.20;99.90
17033;DHT22;63208;52.178;21.016;2023-04-01T16:11:40;10.20;99.90
17033;DHT22;63208;52.178;21.016;2023-04-01T16:16:42;10.20;99.90
17033;DHT22;63208;52.178;21.016;2023-04-01T16:19:24;10.20;99.90
17033;DHT22;63208;52.178;21.016;2023-04-01T16:21:54;10.20;99.90
17033;DHT22;63208;52.178;21.016;2023-04-01T16:24:24;10.30;99.90
17033;DHT22;63208;52.178;21.016;2023-04-01T16:26:57;10.30;99.90
17033;DHT22;63208;52.178;21.016;2023-04-01T16:29:28;10.20;99.90
17033;DHT22;63208;52.178;21.016;2023-04-01T16:34:27;10.20;99.90
17033;DHT22;63208;52.178;21.016;2023-04-01T16:36:58;10.30;99.90
17033;DHT22;63208;52.178;21.016;2023-04-01T16:46:48;10.30;99.90
17033;DHT22;63208;52.178;21.016;2023-04-01T16:51:47;10.30;99.90
17033;DHT22;63208;52.178;21.016;2023-04-01T16:54:17;10.10;99.90
17033;DHT22;63208;52.178;21.016;2023-04-01T16:56:45;10.00;99.90
17033;DHT22;63208;52.178;21.016;2023-04-01T16:59:14;10.00;99.90
17033;DHT22;63208;52.178;21.016;2023-04-01T17:01:48;10.00;99.90
17033;DHT22;63208;52.178;21.016;2023-04-01T17:09:16;9.90;99.90
17033;DHT22;63208;52.178;21.016;2023-04-01T17:14:16;9.80;99.90
17033;DHT22;63208;52.178;21.016;2023-04-01T17:24:09;9.90;99.90
17033;DHT22;63208;52.178;21.016;2023-04-01T17:29:13;9.90;99.90
17033;DHT22;63208;52.178;21.016;2023-04-01T17:41:36;10.00;99.90
17033;DHT22;63208;52.178;21.016;2023-04-01T17:44:13;9.90;99.90
17033;DHT22;63208;52.178;21.016;2023-04-01T17:46:50;9.90;99.90
17033;DHT22;63208;52.178;21.016;2023-04-01T17:51:49;9.90;99.90
17033;DHT22;63208;52.178;21.016;2023-04-01T17:54:20;9.90;99.90
17033;DHT22;63208;52.178;21.016;2023-04-01T18:01:45;10.00;99.90
17033;DHT22;63208;52.178;21.016;2023-04-01T18:06:44;10.10;99.90
17033;DHT22;63208;52.178;21.016;2023-04-01T18:09:16;10.10;99.90
17033;DHT22;63208;52.178;21.016;2023-04-01T18:11:52;10.00;99.90
17033;DHT22;63208;52.178;21.016;2023-04-01T18:34:07;9.60;99.90
17033;DHT22;63208;52.178;21.016;2023-04-01T18:39:03;9.50;99.90
17033;DHT22;63208;52.178;21.016;2023-04-01T19:05:54;9.30;99.90
17033;DHT22;63208;52.178;21.016;2023-04-01T19:08:26;9.40;99.90
17033;DHT22;63208;52.178;21.016;2023-04-01T19:10:57;9.40;99.90
17033;DHT22;63208;52.178;21.016;2023-04-01T19:15:56;9.30;99.90
17033;DHT22;63208;52.178;21.016;2023-04-01T19:18:35;9.40;99.90
17033;DHT22;63208;52.178;21.016;2023-04-01T19:21:07;9.40;99.90
17033;DHT22;63208;52.178;21.016;2023-04-01T19:23:42;9.40;99.90
17033;DHT22;63208;52.178;21.016;2023-04-01T19:26:13;9.40;99.90
17033;DHT22;63208;52.178;21.016;2023-04-01T19:28:43;9.40;99.90
17033;DHT22;63208;52.178;21.016;2023-04-01T19:31:18;9.30;99.90
17033;DHT22;63208;52.178;21.016;2023-04-01T19:40:00;9.20;99.90
17033;DHT22;63208;52.178;21.016;2023-04-01T19:49:52;9.00;99.90
17033;DHT22;63208;52.178;21.016;2023-04-01T19:54:53;9.00;99.90
17033;DHT22;63208;52.178;21.016;2023-04-01T19:59:50;9.00;99.90
17033;DHT22;63208;52.178;21.016;2023-04-01T20:07:13;9.00;99.90
17033;DHT22;63208;52.178;21.016;2023-04-01T20:14:39;9.00;99.90
17033;DHT22;63208;52.178;21.016;2023-04-01T20:17:11;9.00;99.90
17033;DHT22;63208;52.178;21.016;2023-04-01T20:19:42;9.00;99.90
17033;DHT22;63208;52.178;21.016;2023-04-01T20:24:41;8.60;99.90
17033;DHT22;63208;52.178;21.016;2023-04-01T20:29:37;8.70;99.90
17033;DHT22;63208;52.178;21.016;2023-04-01T20:32:06;8.70;99.90
17033;DHT22;63208;52.178;21.016;2023-04-01T20:34:55;8.80;99.90
17033;DHT22;63208;52.178;21.016;2023-04-01T20:42:31;8.80;99.90
17033;DHT22;63208;52.178;21.016;2023-04-01T20:47:28;8.70;99.90
17033;DHT22;63208;52.178;21.016;2023-04-01T20:50:01;8.60;99.90
17033;DHT22;63208;52.178;21.016;2023-04-01T20:57:43;8.60;99.90
17033;DHT22;63208;52.178;21.016;2023-04-01T21:00:16;8.60;99.90
17033;DHT22;63208;52.178;21.016;2023-04-01T21:05:28;8.60;99.90
17033;DHT22;63208;52.178;21.016;2023-04-01T21:07:58;8.60;99.90
17033;DHT22;63208;52.178;21.016;2023-04-01T21:10:32;8.50;99.90
17033;DHT22;63208;52.178;21.016;2023-04-01T21:15:50;8.40;99.90
17033;DHT22;63208;52.178;21.016;2023-04-01T21:18:42;8.40;99.90
17033;DHT22;63208;52.178;21.016;2023-04-01T21:24:07;8.40;99.90
17033;DHT22;63208;52.178;21.016;2023-04-01T21:43:25;8.50;99.90
17033;DHT22;63208;52.178;21.016;2023-04-01T21:48:27;8.40;99.90
17033;DHT22;63208;52.178;21.016;2023-04-01T22:06:20;8.20;99.90
17033;DHT22;63208;52.178;21.016;2023-04-01T22:08:54;8.20;99.90
17033;DHT22;63208;52.178;21.016;2023-04-01T22:11:26;8.40;99.90
17033;DHT22;63208;52.178;21.016;2023-04-01T22:13:59;8.40;99.90
17033;DHT22;63208;52.178;21.016;2023-04-01T22:16:29;8.30;99.90